sensor_id;sensor_type;location;lat;lon;timestamp;P1;durP1;ratioP1;P2;durP2;ratioP2
45812;SDS011;31519;45.408;10.962;2024-01-16T00:02:25;90.35;;;44.58;;
45812;SDS011;31519;45.408;10.962;2024-01-16T00:04:53;89.53;;;44.58;;
45812;SDS011;31519;45.408;10.962;2024-01-16T00:07:22;90.07;;;44.20;;
45812;SDS011;31519;45.408;10.962;2024-01-16T00:09:50;90.93;;;43.05;;
45812;SDS011;31519;45.408;10.962;2024-01-16T00:12:20;82.97;;;41.13;;
45812;SDS011;31519;45.408;10.962;2024-01-16T00:14:48;79.20;;;40.30;;
45812;SDS011;31519;45.408;10.962;2024-01-16T00:17:17;82.40;;;39.67;;
45812;SDS011;31519;45.408;10.962;2024-01-16T00:19:45;82.70;;;40.08;;
45812;SDS011;31519;45.408;10.962;2024-01-16T00:22:14;74.38;;;39.72;;
45812;SDS011;31519;45.408;10.962;2024-01-16T00:24:42;80.00;;;39.05;;
45812;SDS011;31519;45.408;10.962;2024-01-16T00:27:11;83.68;;;42.83;;
45812;SDS011;31519;45.408;10.962;2024-01-16T00:29:39;86.95;;;42.38;;
45812;SDS011;31519;45.408;10.962;2024-01-16T00:32:07;88.80;;;41.97;;
45812;SDS011;31519;45.408;10.962;2024-01-16T00:34:36;82.63;;;40.28;;
45812;SDS011;31519;45.408;10.962;2024-01-16T00:37:04;79.07;;;40.25;;
45812;SDS011;31519;45.408;10.962;2024-01-16T00:39:33;83.32;;;42.55;;
45812;SDS011;31519;45.408;10.962;2024-01-16T00:42:01;82.50;;;40.88;;
45812;SDS011;31519;45.408;10.962;2024-01-16T00:44:30;86.75;;;39.38;;
45812;SDS011;31519;45.408;10.962;2024-01-16T00:46:59;81.65;;;40.05;;
45812;SDS011;31519;45.408;10.962;2024-01-16T00:49:29;73.53;;;37.55;;
45812;SDS011;31519;45.408;10.962;2024-01-16T00:51:58;88.95;;;40.28;;
45812;SDS011;31519;45.408;10.962;2024-01-16T00:54:26;84.65;;;39.95;;
45812;SDS011;31519;45.408;10.962;2024-01-16T00:56:55;80.32;;;38.53;;
45812;SDS011;31519;45.408;10.962;2024-01-16T00:59:27;82.00;;;38.80;;
45812;SDS011;31519;45.408;10.962;2024-01-16T01:01:56;81.43;;;35.22;;
45812;SDS011;31519;45.408;10.962;2024-01-16T01:04:24;80.80;;;37.05;;
45812;SDS011;31519;45.408;10.962;2024-01-16T01:06:53;70.75;;;35.05;;
45812;SDS011;31519;45.408;10.962;2024-01-16T01:09:21;66.47;;;34.63;;
45812;SDS011;31519;45.408;10.962;2024-01-16T01:11:49;69.55;;;33.60;;
45812;SDS011;31519;45.408;10.962;2024-01-16T01:14:17;62.20;;;31.40;;
45812;SDS011;31519;45.408;10.962;2024-01-16T01:16:46;77.03;;;33.75;;
45812;SDS011;31519;45.408;10.962;2024-01-16T01:19:14;63.38;;;31.20;;
45812;SDS011;31519;45.408;10.962;2024-01-16T01:21:43;70.05;;;32.65;;
45812;SDS011;31519;45.408;10.962;2024-01-16T01:24:11;63.67;;;32.75;;
45812;SDS011;31519;45.408;10.962;2024-01-16T01:26:42;72.47;;;31.77;;
45812;SDS011;31519;45.408;10.962;2024-01-16T01:29:11;63.60;;;32.95;;
45812;SDS011;31519;45.408;10.962;2024-01-16T01:31:40;67.45;;;33.78;;
45812;SDS011;31519;45.408;10.962;2024-01-16T01:34:08;70.93;;;34.28;;
45812;SDS011;31519;45.408;10.962;2024-01-16T01:36:36;65.78;;;34.25;;
45812;SDS011;31519;45.408;10.962;2024-01-16T01:39:05;62.05;;;30.23;;
45812;SDS011;31519;45.408;10.962;2024-01-16T01:41:33;72.25;;;33.70;;
45812;SDS011;31519;45.408;10.962;2024-01-16T01:44:01;63.20;;;33.42;;
45812;SDS011;31519;45.408;10.962;2024-01-16T01:46:30;67.45;;;34.58;;
45812;SDS011;31519;45.408;10.962;2024-01-16T01:49:00;64.72;;;31.10;;
45812;SDS011;31519;45.408;10.962;2024-01-16T01:51:29;65.45;;;34.25;;
45812;SDS011;31519;45.408;10.962;2024-01-16T01:53:58;61.88;;;31.92;;
45812;SDS011;31519;45.408;10.962;2024-01-16T01:56:29;67.15;;;32.80;;
45812;SDS011;31519;45.408;10.962;2024-01-16T01:58:57;67.72;;;31.17;;
45812;SDS011;31519;45.408;10.962;2024-01-16T02:01:29;68.43;;;32.75;;
45812;SDS011;31519;45.408;10.962;2024-01-16T02:03:59;64.80;;;32.38;;
45812;SDS011;31519;45.408;10.962;2024-01-16T02:06:28;68.38;;;30.65;;
45812;SDS011;31519;45.408;10.962;2024-01-16T02:08:57;70.85;;;32.80;;
45812;SDS011;31519;45.408;10.962;2024-01-16T02:11:26;68.93;;;32.88;;
45812;SDS011;31519;45.408;10.962;2024-01-16T02:13:55;65.72;;;32.92;;
45812;SDS011;31519;45.408;10.962;2024-01-16T02:16:23;68.72;;;31.50;;
45812;SDS011;31519;45.408;10.962;2024-01-16T02:18:52;67.20;;;33.20;;
45812;SDS011;31519;45.408;10.962;2024-01-16T02:21:21;83.07;;;35.67;;
45812;SDS011;31519;45.408;10.962;2024-01-16T02:23:50;67.80;;;32.85;;
45812;SDS011;31519;45.408;10.962;2024-01-16T02:26:19;77.65;;;35.30;;
45812;SDS011;31519;45.408;10.962;2024-01-16T02:28:49;68.13;;;32.13;;
45812;SDS011;31519;45.408;10.962;2024-01-16T02:31:17;74.93;;;33.33;;
45812;SDS011;31519;45.408;10.962;2024-01-16T02:33:45;64.95;;;30.05;;
45812;SDS011;31519;45.408;10.962;2024-01-16T02:36:14;70.25;;;34.35;;
45812;SDS011;31519;45.408;10.962;2024-01-16T02:38:42;63.38;;;32.38;;
45812;SDS011;31519;45.408;10.962;2024-01-16T02:41:13;63.22;;;31.33;;
45812;SDS011;31519;45.408;10.962;2024-01-16T02:43:44;59.80;;;29.27;;
45812;SDS011;31519;45.408;10.962;2024-01-16T02:46:13;66.10;;;32.30;;
45812;SDS011;31519;45.408;10.962;2024-01-16T02:48:42;72.85;;;30.70;;
45812;SDS011;31519;45.408;10.962;2024-01-16T02:51:11;69.25;;;32.85;;
45812;SDS011;31519;45.408;10.962;2024-01-16T02:53:39;63.47;;;30.88;;
45812;SDS011;31519;45.408;10.962;2024-01-16T02:56:08;66.13;;;31.42;;
45812;SDS011;31519;45.408;10.962;2024-01-16T02:58:37;66.00;;;31.35;;
45812;SDS011;31519;45.408;10.962;2024-01-16T03:01:05;61.30;;;30.38;;
45812;SDS011;31519;45.408;10.962;2024-01-16T03:03:34;68.78;;;30.90;;
45812;SDS011;31519;45.408;10.962;2024-01-16T03:06:03;70.00;;;30.98;;
45812;SDS011;31519;45.408;10.962;2024-01-16T03:08:32;65.45;;;31.08;;
45812;SDS011;31519;45.408;10.962;2024-01-16T03:11:00;60.53;;;29.48;;
45812;SDS011;31519;45.408;10.962;2024-01-16T03:13:29;59.72;;;29.48;;
45812;SDS011;31519;45.408;10.962;2024-01-16T05:09:20;38.22;;;19.50;;
45812;SDS011;31519;45.408;10.962;2024-01-16T05:11:48;47.08;;;22.80;;
45812;SDS011;31519;45.408;10.962;2024-01-16T05:14:17;45.63;;;21.52;;
45812;SDS011;31519;45.408;10.962;2024-01-16T05:16:45;49.35;;;20.20;;
45812;SDS011;31519;45.408;10.962;2024-01-16T05:19:13;47.13;;;21.17;;
45812;SDS011;31519;45.408;10.962;2024-01-16T05:21:43;44.25;;;19.83;;
45812;SDS011;31519;45.408;10.962;2024-01-16T05:24:11;40.88;;;20.83;;
45812;SDS011;31519;45.408;10.962;2024-01-16T05:26:40;40.58;;;19.23;;
45812;SDS011;31519;45.408;10.962;2024-01-16T05:29:08;45.97;;;20.60;;
45812;SDS011;31519;45.408;10.962;2024-01-16T05:31:40;49.42;;;20.88;;
45812;SDS011;31519;45.408;10.962;2024-01-16T05:34:10;42.92;;;21.52;;
45812;SDS011;31519;45.408;10.962;2024-01-16T05:36:39;43.42;;;19.75;;
45812;SDS011;31519;45.408;10.962;2024-01-16T05:39:07;38.45;;;19.02;;
45812;SDS011;31519;45.408;10.962;2024-01-16T05:41:36;35.90;;;19.25;;
45812;SDS011;31519;45.408;10.962;2024-01-16T05:44:05;45.17;;;19.55;;
45812;SDS011;31519;45.408;10.962;2024-01-16T05:46:34;37.17;;;18.65;;
45812;SDS011;31519;45.408;10.962;2024-01-16T05:49:02;42.10;;;18.75;;
45812;SDS011;31519;45.408;10.962;2024-01-16T05:51:31;37.75;;;16.50;;
45812;SDS011;31519;45.408;10.962;2024-01-16T05:53:59;35.55;;;16.83;;
45812;SDS011;31519;45.408;10.962;2024-01-16T05:56:28;41.65;;;18.58;;
45812;SDS011;31519;45.408;10.962;2024-01-16T05:58:56;34.40;;;16.92;;
45812;SDS011;31519;45.408;10.962;2024-01-16T06:01:24;43.13;;;17.77;;
45812;SDS011;31519;45.408;10.962;2024-01-16T06:03:52;37.15;;;17.13;;
45812;SDS011;31519;45.408;10.962;2024-01-16T06:06:21;39.65;;;17.40;;
45812;SDS011;31519;45.408;10.962;2024-01-16T06:08:49;46.40;;;18.10;;
45812;SDS011;31519;45.408;10.962;2024-01-16T06:11:18;33.55;;;16.92;;
45812;SDS011;31519;45.408;10.962;2024-01-16T06:13:47;49.72;;;17.73;;
45812;SDS011;31519;45.408;10.962;2024-01-16T06:16:16;45.88;;;19.75;;
45812;SDS011;31519;45.408;10.962;2024-01-16T06:18:44;41.88;;;16.85;;
45812;SDS011;31519;45.408;10.962;2024-01-16T06:21:13;36.65;;;16.88;;
45812;SDS011;31519;45.408;10.962;2024-01-16T06:23:42;40.33;;;17.63;;
45812;SDS011;31519;45.408;10.962;2024-01-16T06:26:11;40.55;;;17.52;;
45812;SDS011;31519;45.408;10.962;2024-01-16T06:28:39;32.25;;;16.15;;
45812;SDS011;31519;45.408;10.962;2024-01-16T06:31:11;44.90;;;16.38;;
45812;SDS011;31519;45.408;10.962;2024-01-16T06:33:39;30.88;;;16.55;;
45812;SDS011;31519;45.408;10.962;2024-01-16T06:36:09;38.42;;;17.10;;
45812;SDS011;31519;45.408;10.962;2024-01-16T06:38:38;46.00;;;17.98;;
45812;SDS011;31519;45.408;10.962;2024-01-16T06:41:08;50.20;;;19.67;;
45812;SDS011;31519;45.408;10.962;2024-01-16T06:43:36;60.30;;;23.67;;
45812;SDS011;31519;45.408;10.962;2024-01-16T06:46:04;89.63;;;29.85;;
45812;SDS011;31519;45.408;10.962;2024-01-16T06:48:35;64.63;;;23.23;;
45812;SDS011;31519;45.408;10.962;2024-01-16T06:51:05;65.93;;;24.00;;
45812;SDS011;31519;45.408;10.962;2024-01-16T06:53:35;51.65;;;19.15;;
45812;SDS011;31519;45.408;10.962;2024-01-16T06:56:07;48.85;;;18.65;;
45812;SDS011;31519;45.408;10.962;2024-01-16T06:58:36;35.67;;;17.67;;
45812;SDS011;31519;45.408;10.962;2024-01-16T07:01:05;40.30;;;17.83;;
45812;SDS011;31519;45.408;10.962;2024-01-16T07:03:33;44.05;;;18.63;;
45812;SDS011;31519;45.408;10.962;2024-01-16T07:06:02;56.13;;;19.48;;
45812;SDS011;31519;45.408;10.962;2024-01-16T07:08:34;46.72;;;18.45;;
45812;SDS011;31519;45.408;10.962;2024-01-16T07:11:03;31.83;;;15.10;;
45812;SDS011;31519;45.408;10.962;2024-01-16T07:13:35;34.42;;;16.95;;
45812;SDS011;31519;45.408;10.962;2024-01-16T07:16:03;28.48;;;14.65;;
45812;SDS011;31519;45.408;10.962;2024-01-16T07:18:32;40.05;;;16.25;;
45812;SDS011;31519;45.408;10.962;2024-01-16T07:21:01;33.92;;;15.43;;
45812;SDS011;31519;45.408;10.962;2024-01-16T07:23:30;35.67;;;15.10;;
45812;SDS011;31519;45.408;10.962;2024-01-16T07:25:59;28.45;;;13.68;;
45812;SDS011;31519;45.408;10.962;2024-01-16T07:28:31;38.90;;;14.93;;
45812;SDS011;31519;45.408;10.962;2024-01-16T07:30:59;47.03;;;17.70;;
45812;SDS011;31519;45.408;10.962;2024-01-16T07:33:27;35.33;;;15.63;;
45812;SDS011;31519;45.408;10.962;2024-01-16T07:35:56;28.13;;;11.35;;
45812;SDS011;31519;45.408;10.962;2024-01-16T07:38:25;41.75;;;14.75;;
45812;SDS011;31519;45.408;10.962;2024-01-16T07:40:53;28.38;;;11.73;;
45812;SDS011;31519;45.408;10.962;2024-01-16T07:43:21;30.45;;;14.82;;
45812;SDS011;31519;45.408;10.962;2024-01-16T07:45:49;32.85;;;14.60;;
45812;SDS011;31519;45.408;10.962;2024-01-16T07:48:17;38.92;;;12.10;;
45812;SDS011;31519;45.408;10.962;2024-01-16T07:50:46;36.97;;;12.30;;
45812;SDS011;31519;45.408;10.962;2024-01-16T07:53:15;30.88;;;11.23;;
45812;SDS011;31519;45.408;10.962;2024-01-16T07:55:43;33.50;;;12.02;;
45812;SDS011;31519;45.408;10.962;2024-01-16T07:58:12;37.13;;;10.55;;
45812;SDS011;31519;45.408;10.962;2024-01-16T08:00:40;28.73;;;11.52;;
45812;SDS011;31519;45.408;10.962;2024-01-16T08:03:09;26.90;;;11.45;;
45812;SDS011;31519;45.408;10.962;2024-01-16T08:05:40;18.60;;;10.70;;
45812;SDS011;31519;45.408;10.962;2024-01-16T08:08:09;36.80;;;11.85;;
45812;SDS011;31519;45.408;10.962;2024-01-16T08:10:37;25.42;;;12.80;;
45812;SDS011;31519;45.408;10.962;2024-01-16T08:13:06;34.17;;;12.32;;
45812;SDS011;31519;45.408;10.962;2024-01-16T08:15:33;37.53;;;12.95;;
45812;SDS011;31519;45.408;10.962;2024-01-16T08:18:02;31.83;;;11.38;;
45812;SDS011;31519;45.408;10.962;2024-01-16T08:20:31;29.50;;;10.38;;
45812;SDS011;31519;45.408;10.962;2024-01-16T08:22:59;29.70;;;11.07;;
45812;SDS011;31519;45.408;10.962;2024-01-16T08:25:27;31.05;;;11.02;;
45812;SDS011;31519;45.408;10.962;2024-01-16T08:27:56;23.23;;;11.88;;
45812;SDS011;31519;45.408;10.962;2024-01-16T08:30:24;28.98;;;11.82;;
45812;SDS011;31519;45.408;10.962;2024-01-16T08:32:52;35.67;;;13.50;;
45812;SDS011;31519;45.408;10.962;2024-01-16T08:35:21;36.42;;;14.43;;
45812;SDS011;31519;45.408;10.962;2024-01-16T08:37:50;45.03;;;15.32;;
45812;SDS011;31519;45.408;10.962;2024-01-16T08:40:18;50.58;;;17.17;;
45812;SDS011;31519;45.408;10.962;2024-01-16T08:42:46;60.47;;;18.08;;
45812;SDS011;31519;45.408;10.962;2024-01-16T08:45:24;43.20;;;15.00;;
45812;SDS011;31519;45.408;10.962;2024-01-16T08:47:54;57.50;;;18.30;;
45812;SDS011;31519;45.408;10.962;2024-01-16T08:50:22;46.13;;;18.27;;
45812;SDS011;31519;45.408;10.962;2024-01-16T08:52:51;47.08;;;14.95;;
45812;SDS011;31519;45.408;10.962;2024-01-16T08:55:19;51.00;;;17.00;;
45812;SDS011;31519;45.408;10.962;2024-01-16T08:57:48;44.45;;;15.82;;
45812;SDS011;31519;45.408;10.962;2024-01-16T09:00:16;61.40;;;18.05;;
45812;SDS011;31519;45.408;10.962;2024-01-16T09:02:44;45.95;;;15.27;;
45812;SDS011;31519;45.408;10.962;2024-01-16T09:05:13;39.70;;;14.40;;
45812;SDS011;31519;45.408;10.962;2024-01-16T09:07:42;40.00;;;16.60;;
45812;SDS011;31519;45.408;10.962;2024-01-16T09:10:24;38.78;;;14.57;;
45812;SDS011;31519;45.408;10.962;2024-01-16T09:12:53;38.92;;;15.75;;
45812;SDS011;31519;45.408;10.962;2024-01-16T09:15:21;48.13;;;15.90;;
45812;SDS011;31519;45.408;10.962;2024-01-16T09:17:49;38.78;;;15.10;;
45812;SDS011;31519;45.408;10.962;2024-01-16T09:20:18;38.65;;;15.07;;
45812;SDS011;31519;45.408;10.962;2024-01-16T09:22:46;38.22;;;15.98;;
45812;SDS011;31519;45.408;10.962;2024-01-16T09:25:14;41.45;;;14.73;;
45812;SDS011;31519;45.408;10.962;2024-01-16T09:27:44;48.35;;;14.93;;
45812;SDS011;31519;45.408;10.962;2024-01-16T09:30:13;42.00;;;15.68;;
45812;SDS011;31519;45.408;10.962;2024-01-16T09:32:42;35.50;;;15.82;;
45812;SDS011;31519;45.408;10.962;2024-01-16T09:35:10;37.10;;;14.68;;
45812;SDS011;31519;45.408;10.962;2024-01-16T09:37:39;38.55;;;14.95;;
45812;SDS011;31519;45.408;10.962;2024-01-16T09:40:07;47.78;;;14.63;;
45812;SDS011;31519;45.408;10.962;2024-01-16T09:42:36;42.60;;;16.45;;
45812;SDS011;31519;45.408;10.962;2024-01-16T09:45:04;37.80;;;16.73;;
45812;SDS011;31519;45.408;10.962;2024-01-16T09:47:34;34.03;;;14.52;;
45812;SDS011;31519;45.408;10.962;2024-01-16T09:50:04;29.80;;;14.90;;
45812;SDS011;31519;45.408;10.962;2024-01-16T09:52:33;37.33;;;15.00;;
45812;SDS011;31519;45.408;10.962;2024-01-16T09:55:02;34.88;;;14.02;;
45812;SDS011;31519;45.408;10.962;2024-01-16T09:57:30;37.05;;;13.70;;
45812;SDS011;31519;45.408;10.962;2024-01-16T10:00:00;28.67;;;13.70;;
45812;SDS011;31519;45.408;10.962;2024-01-16T10:02:33;30.23;;;13.15;;
45812;SDS011;31519;45.408;10.962;2024-01-16T10:05:02;28.75;;;14.15;;
45812;SDS011;31519;45.408;10.962;2024-01-16T10:07:31;35.97;;;13.68;;
45812;SDS011;31519;45.408;10.962;2024-01-16T10:10:01;34.65;;;13.68;;
45812;SDS011;31519;45.408;10.962;2024-01-16T10:12:30;31.38;;;13.85;;
45812;SDS011;31519;45.408;10.962;2024-01-16T10:14:59;39.95;;;13.73;;
45812;SDS011;31519;45.408;10.962;2024-01-16T10:17:43;25.90;;;13.45;;
45812;SDS011;31519;45.408;10.962;2024-01-16T10:20:11;36.37;;;13.27;;
45812;SDS011;31519;45.408;10.962;2024-01-16T10:22:54;32.78;;;13.43;;
45812;SDS011;31519;45.408;10.962;2024-01-16T10:25:22;36.08;;;14.32;;
45812;SDS011;31519;45.408;10.962;2024-01-16T10:28:19;23.27;;;13.10;;
45812;SDS011;31519;45.408;10.962;2024-01-16T10:30:39;36.47;;;16.27;;
45812;SDS011;31519;45.408;10.962;2024-01-16T10:33:14;41.90;;;14.70;;
45812;SDS011;31519;45.408;10.962;2024-01-16T10:35:45;29.40;;;14.30;;
45812;SDS011;31519;45.408;10.962;2024-01-16T10:38:19;31.52;;;14.80;;
45812;SDS011;31519;45.408;10.962;2024-01-16T10:41:03;33.10;;;15.43;;
45812;SDS011;31519;45.408;10.962;2024-01-16T10:43:34;37.85;;;15.15;;
45812;SDS011;31519;45.408;10.962;2024-01-16T10:48:43;33.58;;;13.50;;
45812;SDS011;31519;45.408;10.962;2024-01-16T10:51:15;28.83;;;13.98;;
45812;SDS011;31519;45.408;10.962;2024-01-16T10:53:45;26.83;;;14.38;;
45812;SDS011;31519;45.408;10.962;2024-01-16T10:56:14;30.45;;;13.15;;
45812;SDS011;31519;45.408;10.962;2024-01-16T10:58:47;29.35;;;12.45;;
45812;SDS011;31519;45.408;10.962;2024-01-16T11:01:34;29.63;;;11.55;;
45812;SDS011;31519;45.408;10.962;2024-01-16T11:04:04;17.38;;;9.95;;
45812;SDS011;31519;45.408;10.962;2024-01-16T11:06:35;16.90;;;9.75;;
45812;SDS011;31519;45.408;10.962;2024-01-16T11:09:04;18.40;;;10.23;;
45812;SDS011;31519;45.408;10.962;2024-01-16T11:11:34;15.45;;;8.10;;
45812;SDS011;31519;45.408;10.962;2024-01-16T11:14:06;21.02;;;7.88;;
45812;SDS011;31519;45.408;10.962;2024-01-16T11:16:35;14.70;;;7.40;;
45812;SDS011;31519;45.408;10.962;2024-01-16T11:19:04;15.55;;;7.82;;
45812;SDS011;31519;45.408;10.962;2024-01-16T11:21:56;14.77;;;6.78;;
45812;SDS011;31519;45.408;10.962;2024-01-16T11:24:27;14.77;;;6.43;;
45812;SDS011;31519;45.408;10.962;2024-01-16T11:26:55;25.30;;;7.25;;
45812;SDS011;31519;45.408;10.962;2024-01-16T11:31:55;14.70;;;3.63;;
45812;SDS011;31519;45.408;10.962;2024-01-16T11:37:20;4.85;;;3.10;;
45812;SDS011;31519;45.408;10.962;2024-01-16T11:40:40;6.03;;;3.08;;
45812;SDS011;31519;45.408;10.962;2024-01-16T11:42:49;3.90;;;2.90;;
45812;SDS011;31519;45.408;10.962;2024-01-16T11:48:13;10.63;;;3.00;;
45812;SDS011;31519;45.408;10.962;2024-01-16T11:50:44;4.63;;;2.83;;
45812;SDS011;31519;45.408;10.962;2024-01-16T11:53:55;3.28;;;2.13;;
45812;SDS011;31519;45.408;10.962;2024-01-16T12:01:52;4.88;;;3.08;;
45812;SDS011;31519;45.408;10.962;2024-01-16T12:04:27;4.38;;;2.65;;
45812;SDS011;31519;45.408;10.962;2024-01-16T12:06:59;3.88;;;2.90;;
45812;SDS011;31519;45.408;10.962;2024-01-16T12:09:28;8.63;;;3.65;;
45812;SDS011;31519;45.408;10.962;2024-01-16T12:11:58;5.03;;;3.70;;
45812;SDS011;31519;45.408;10.962;2024-01-16T12:14:31;9.07;;;4.90;;
45812;SDS011;31519;45.408;10.962;2024-01-16T12:17:12;10.60;;;5.97;;
45812;SDS011;31519;45.408;10.962;2024-01-16T12:19:41;8.05;;;4.72;;
45812;SDS011;31519;45.408;10.962;2024-01-16T12:22:15;11.00;;;6.25;;
45812;SDS011;31519;45.408;10.962;2024-01-16T12:24:46;6.72;;;4.47;;
45812;SDS011;31519;45.408;10.962;2024-01-16T12:27:18;10.50;;;5.72;;
45812;SDS011;31519;45.408;10.962;2024-01-16T12:29:46;14.90;;;7.47;;
45812;SDS011;31519;45.408;10.962;2024-01-16T12:32:15;7.93;;;3.92;;
45812;SDS011;31519;45.408;10.962;2024-01-16T12:34:47;14.90;;;5.88;;
45812;SDS011;31519;45.408;10.962;2024-01-16T12:37:17;11.68;;;4.70;;
45812;SDS011;31519;45.408;10.962;2024-01-16T12:39:45;7.95;;;3.97;;
45812;SDS011;31519;45.408;10.962;2024-01-16T12:42:14;6.20;;;3.90;;
45812;SDS011;31519;45.408;10.962;2024-01-16T12:44:42;8.18;;;3.92;;
45812;SDS011;31519;45.408;10.962;2024-01-16T12:47:14;8.57;;;3.60;;
45812;SDS011;31519;45.408;10.962;2024-01-16T12:49:43;7.25;;;4.13;;
45812;SDS011;31519;45.408;10.962;2024-01-16T12:52:19;5.45;;;3.33;;
45812;SDS011;31519;45.408;10.962;2024-01-16T12:54:58;7.60;;;3.63;;
45812;SDS011;31519;45.408;10.962;2024-01-16T12:57:33;4.97;;;3.60;;
45812;SDS011;31519;45.408;10.962;2024-01-16T13:00:20;15.52;;;4.60;;
45812;SDS011;31519;45.408;10.962;2024-01-16T13:02:51;8.80;;;3.42;;
45812;SDS011;31519;45.408;10.962;2024-01-16T13:05:20;14.38;;;4.35;;
45812;SDS011;31519;45.408;10.962;2024-01-16T13:07:59;12.30;;;3.50;;
45812;SDS011;31519;45.408;10.962;2024-01-16T13:10:31;5.60;;;3.20;;
45812;SDS011;31519;45.408;10.962;2024-01-16T13:13:15;9.93;;;3.85;;
45812;SDS011;31519;45.408;10.962;2024-01-16T13:15:49;8.20;;;4.13;;
45812;SDS011;31519;45.408;10.962;2024-01-16T13:18:22;10.25;;;4.05;;
45812;SDS011;31519;45.408;10.962;2024-01-16T13:20:52;7.23;;;4.63;;
45812;SDS011;31519;45.408;10.962;2024-01-16T13:23:22;13.15;;;6.22;;
45812;SDS011;31519;45.408;10.962;2024-01-16T13:25:53;8.13;;;4.50;;
45812;SDS011;31519;45.408;10.962;2024-01-16T13:28:31;12.32;;;5.70;;
45812;SDS011;31519;45.408;10.962;2024-01-16T13:30:59;13.68;;;5.90;;
45812;SDS011;31519;45.408;10.962;2024-01-16T13:33:28;16.33;;;7.28;;
45812;SDS011;31519;45.408;10.962;2024-01-16T13:35:57;8.70;;;6.25;;
45812;SDS011;31519;45.408;10.962;2024-01-16T13:38:25;11.27;;;6.20;;
45812;SDS011;31519;45.408;10.962;2024-01-16T13:40:54;12.05;;;6.70;;
45812;SDS011;31519;45.408;10.962;2024-01-16T13:43:22;10.73;;;6.90;;
45812;SDS011;31519;45.408;10.962;2024-01-16T13:45:50;12.27;;;5.60;;
45812;SDS011;31519;45.408;10.962;2024-01-16T13:48:19;13.02;;;7.68;;
45812;SDS011;31519;45.408;10.962;2024-01-16T13:50:49;13.73;;;6.68;;
45812;SDS011;31519;45.408;10.962;2024-01-16T13:53:18;15.18;;;6.75;;
45812;SDS011;31519;45.408;10.962;2024-01-16T13:55:47;10.05;;;5.85;;
45812;SDS011;31519;45.408;10.962;2024-01-16T13:58:15;12.55;;;6.43;;
45812;SDS011;31519;45.408;10.962;2024-01-16T14:00:43;11.32;;;5.95;;
45812;SDS011;31519;45.408;10.962;2024-01-16T14:03:12;18.35;;;9.07;;
45812;SDS011;31519;45.408;10.962;2024-01-16T14:05:40;19.30;;;9.32;;
45812;SDS011;31519;45.408;10.962;2024-01-16T14:08:11;17.02;;;6.97;;
45812;SDS011;31519;45.408;10.962;2024-01-16T14:10:40;13.68;;;6.45;;
45812;SDS011;31519;45.408;10.962;2024-01-16T14:13:09;23.38;;;6.15;;
45812;SDS011;31519;45.408;10.962;2024-01-16T14:15:37;12.77;;;7.07;;
45812;SDS011;31519;45.408;10.962;2024-01-16T14:18:07;22.05;;;9.32;;
45812;SDS011;31519;45.408;10.962;2024-01-16T14:20:36;10.80;;;6.40;;
45812;SDS011;31519;45.408;10.962;2024-01-16T14:23:05;17.85;;;6.45;;
45812;SDS011;31519;45.408;10.962;2024-01-16T14:25:33;12.00;;;5.97;;
45812;SDS011;31519;45.408;10.962;2024-01-16T14:28:02;14.75;;;7.07;;
45812;SDS011;31519;45.408;10.962;2024-01-16T14:30:32;10.77;;;6.15;;
45812;SDS011;31519;45.408;10.962;2024-01-16T14:33:01;9.85;;;5.40;;
45812;SDS011;31519;45.408;10.962;2024-01-16T14:35:30;7.63;;;4.90;;
45812;SDS011;31519;45.408;10.962;2024-01-16T14:37:58;9.55;;;5.75;;
45812;SDS011;31519;45.408;10.962;2024-01-16T14:40:26;9.55;;;5.47;;
45812;SDS011;31519;45.408;10.962;2024-01-16T14:42:55;15.23;;;5.65;;
45812;SDS011;31519;45.408;10.962;2024-01-16T14:45:27;9.90;;;5.35;;
45812;SDS011;31519;45.408;10.962;2024-01-16T14:47:55;11.40;;;5.38;;
45812;SDS011;31519;45.408;10.962;2024-01-16T14:50:24;16.98;;;7.20;;
45812;SDS011;31519;45.408;10.962;2024-01-16T14:52:52;16.90;;;5.95;;
45812;SDS011;31519;45.408;10.962;2024-01-16T14:55:21;25.42;;;7.47;;
45812;SDS011;31519;45.408;10.962;2024-01-16T14:57:50;18.00;;;6.50;;
45812;SDS011;31519;45.408;10.962;2024-01-16T15:00:28;17.08;;;6.40;;
45812;SDS011;31519;45.408;10.962;2024-01-16T15:02:57;14.23;;;6.20;;
45812;SDS011;31519;45.408;10.962;2024-01-16T15:05:26;12.10;;;6.03;;
45812;SDS011;31519;45.408;10.962;2024-01-16T15:07:54;15.07;;;6.15;;
45812;SDS011;31519;45.408;10.962;2024-01-16T15:10:23;15.15;;;6.15;;
45812;SDS011;31519;45.408;10.962;2024-01-16T15:12:52;16.92;;;5.35;;
45812;SDS011;31519;45.408;10.962;2024-01-16T15:15:20;18.00;;;5.85;;
45812;SDS011;31519;45.408;10.962;2024-01-16T15:17:48;20.65;;;6.07;;
45812;SDS011;31519;45.408;10.962;2024-01-16T15:20:19;11.32;;;5.45;;
45812;SDS011;31519;45.408;10.962;2024-01-16T15:22:48;14.27;;;5.10;;
45812;SDS011;31519;45.408;10.962;2024-01-16T15:25:20;9.57;;;4.30;;
45812;SDS011;31519;45.408;10.962;2024-01-16T15:27:51;15.75;;;5.90;;
45812;SDS011;31519;45.408;10.962;2024-01-16T15:30:21;9.07;;;4.88;;
45812;SDS011;31519;45.408;10.962;2024-01-16T15:32:53;18.98;;;5.82;;
45812;SDS011;31519;45.408;10.962;2024-01-16T15:35:21;13.57;;;4.93;;
45812;SDS011;31519;45.408;10.962;2024-01-16T15:37:50;11.15;;;5.03;;
45812;SDS011;31519;45.408;10.962;2024-01-16T15:40:19;13.10;;;6.10;;
45812;SDS011;31519;45.408;10.962;2024-01-16T15:42:48;12.35;;;5.10;;
45812;SDS011;31519;45.408;10.962;2024-01-16T15:45:17;9.73;;;5.63;;
45812;SDS011;31519;45.408;10.962;2024-01-16T15:47:45;13.30;;;5.35;;
45812;SDS011;31519;45.408;10.962;2024-01-16T15:50:14;10.18;;;5.13;;
45812;SDS011;31519;45.408;10.962;2024-01-16T15:52:42;9.85;;;5.55;;
45812;SDS011;31519;45.408;10.962;2024-01-16T15:55:10;14.15;;;6.28;;
45812;SDS011;31519;45.408;10.962;2024-01-16T15:57:39;22.67;;;6.68;;
45812;SDS011;31519;45.408;10.962;2024-01-16T16:00:07;12.30;;;5.93;;
45812;SDS011;31519;45.408;10.962;2024-01-16T16:02:37;17.27;;;6.63;;
45812;SDS011;31519;45.408;10.962;2024-01-16T16:05:06;12.65;;;6.30;;
45812;SDS011;31519;45.408;10.962;2024-01-16T16:07:35;18.88;;;8.27;;
45812;SDS011;31519;45.408;10.962;2024-01-16T16:10:03;14.13;;;7.20;;
45812;SDS011;31519;45.408;10.962;2024-01-16T16:12:32;19.38;;;6.38;;
45812;SDS011;31519;45.408;10.962;2024-01-16T16:15:01;18.40;;;7.07;;
45812;SDS011;31519;45.408;10.962;2024-01-16T16:17:31;16.48;;;7.30;;
45812;SDS011;31519;45.408;10.962;2024-01-16T16:19:59;20.80;;;8.32;;
45812;SDS011;31519;45.408;10.962;2024-01-16T16:22:28;27.67;;;7.30;;
45812;SDS011;31519;45.408;10.962;2024-01-16T16:24:56;19.73;;;7.90;;
45812;SDS011;31519;45.408;10.962;2024-01-16T16:27:25;13.60;;;7.60;;
45812;SDS011;31519;45.408;10.962;2024-01-16T16:29:56;20.02;;;8.38;;
45812;SDS011;31519;45.408;10.962;2024-01-16T16:32:26;24.55;;;7.82;;
45812;SDS011;31519;45.408;10.962;2024-01-16T16:34:54;24.23;;;7.88;;
45812;SDS011;31519;45.408;10.962;2024-01-16T16:37:23;26.70;;;8.77;;
45812;SDS011;31519;45.408;10.962;2024-01-16T16:39:51;21.50;;;8.63;;
45812;SDS011;31519;45.408;10.962;2024-01-16T16:42:19;20.65;;;8.38;;